Time;durP1;ratioP1;P1;durP2;ratioP2;P2;SDS_P1;SDS_P2;PMS_P1;PMS_P2;Temp;Humidity;BMP_temperature;BMP_pressure;BME280_temperature;BME280_humidity;BME280_pressure;Samples;Min_cycle;Max_cycle;Signal;HPM_P1;HPM_P2
2022/09/11 00:01:21;;;;;;;1.88;0.73;;;12.90;99.90;;;;;;5092867;28;20052;-49
2022/09/11 00:03:48;;;;;;;5.45;0.85;;;12.80;99.90;;;;;;5089620;28;20488;-48
2022/09/11 00:06:19;;;;;;;4.50;1.40;;;12.80;99.90;;;;;;5073225;22;20049;-44
2022/09/11 00:09:00;;;;;;;4.80;1.10;;;12.90;99.90;;;;;;5049551;28;20037;-47
2022/09/11 00:11:47;;;;;;;1.25;0.85;;;13.00;99.90;;;;;;5050508;28;20076;-47
2022/09/11 00:14:14;;;;;;;3.38;0.95;;;12.90;99.90;;;;;;5052459;28;20068;-50
2022/09/11 00:16:45;;;;;;;3.08;0.70;;;12.90;99.90;;;;;;5059067;28;20119;-47
2022/09/11 00:19:17;;;;;;;0.50;0.50;;;12.90;99.90;;;;;;5064486;28;20512;-44
2022/09/11 00:21:45;;;;;;;3.22;0.60;;;12.80;99.90;;;;;;5064284;28;20231;-51
2022/09/11 00:24:12;;;;;;;1.00;0.70;;;12.90;99.90;;;;;;5063414;28;20076;-45
2022/09/11 00:26:39;;;;;;;0.98;0.65;;;12.90;99.90;;;;;;5071121;28;20067;-45
2022/09/11 00:29:07;;;;;;;1.30;0.80;;;12.90;99.90;;;;;;5057409;28;20053;-49
2022/09/11 00:31:34;;;;;;;;;;;12.90;99.90;;;;;;5051811;28;20068;-46
2022/09/11 00:34:00;;;;;;;0.60;0.60;;;12.80;99.90;;;;;;5039177;28;19959;-46
2022/09/11 00:36:30;;;;;;;1.80;0.77;;;12.70;99.90;;;;;;5064890;28;20106;-46
2022/09/11 00:38:58;;;;;;;1.52;0.90;;;12.70;99.90;;;;;;5052070;28;20124;-46
2022/09/11 00:41:27;;;;;;;4.72;0.93;;;12.70;99.90;;;;;;5062958;28;20489;-46
2022/09/11 00:43:56;;;;;;;1.80;0.80;;;12.60;99.90;;;;;;5044260;28;20509;-47
2022/09/11 00:46:30;;;;;;;2.05;1.15;;;12.60;99.90;;;;;;5058200;28;20124;-47
2022/09/11 00:49:00;;;;;;;3.53;1.40;;;12.50;99.90;;;;;;5061312;28;20148;-46
2022/09/11 00:51:32;;;;;;;2.75;0.90;;;12.60;99.90;;;;;;5049662;28;20071;-47
2022/09/11 00:54:02;;;;;;;1.77;1.10;;;12.60;99.90;;;;;;5059386;28;20366;-46
2022/09/11 00:56:34;;;;;;;5.47;0.93;;;12.60;99.90;;;;;;5060038;28;20090;-46
2022/09/11 00:59:03;;;;;;;4.43;1.10;;;12.60;99.90;;;;;;5069476;28;20032;-47
2022/09/11 01:01:30;;;;;;;0.88;0.80;;;12.60;99.90;;;;;;5050495;28;20040;-44
2022/09/11 01:03:56;;;;;;;2.45;0.75;;;12.70;99.90;;;;;;5069313;28;20044;-46
2022/09/11 01:06:24;;;;;;;0.60;0.50;;;12.60;99.90;;;;;;5070895;28;20132;-47
2022/09/11 01:08:51;;;;;;;2.88;0.80;;;12.60;99.90;;;;;;5070150;28;20033;-46
2022/09/11 01:11:45;;;;;;;1.17;0.50;;;12.50;99.90;;;;;;5045606;28;20041;-46
2022/09/11 01:14:36;;;;;;;2.67;0.88;;;12.50;99.90;;;;;;5065921;28;20121;-46
2022/09/11 01:17:14;;;;;;;1.63;0.90;;;12.50;99.90;;;;;;5032010;28;20561;-46
2022/09/11 01:20:08;;;;;;;4.85;0.80;;;12.60;99.90;;;;;;5053512;28;20048;-47
2022/09/11 01:22:50;;;;;;;0.60;0.60;;;12.50;99.90;;;;;;5063076;28;20053;-46
2022/09/11 01:25:29;;;;;;;2.45;0.65;;;12.50;99.90;;;;;;5052651;28;20118;-46
2022/09/11 01:27:59;;;;;;;1.00;0.70;;;12.50;99.90;;;;;;5052854;28;20055;-46
2022/09/11 01:30:36;;;;;;;0.82;0.65;;;12.50;99.90;;;;;;5060647;28;20075;-46
2022/09/11 01:33:14;;;;;;;0.98;0.70;;;12.50;99.90;;;;;;5052572;28;20047;-46
2022/09/11 01:36:06;;;;;;;0.55;0.55;;;12.50;99.90;;;;;;5050528;28;20037;-46
2022/09/11 01:38:45;;;;;;;1.65;0.55;;;12.50;99.90;;;;;;5066492;28;20448;-46
2022/09/11 01:41:28;;;;;;;6.78;0.75;;;12.50;99.90;;;;;;5050921;28;20068;-46
2022/09/11 01:44:06;;;;;;;1.15;0.80;;;12.50;99.90;;;;;;5065154;28;20036;-47
2022/09/11 01:46:40;;;;;;;4.10;0.88;;;12.50;99.90;;;;;;5048671;28;20060;-46
2022/09/11 01:49:34;;;;;;;1.02;0.60;;;12.50;99.90;;;;;;5067253;28;20041;-47
2022/09/11 01:52:05;;;;;;;1.25;0.60;;;12.50;99.90;;;;;;5071727;28;20408;-46
2022/09/11 01:54:40;;;;;;;3.65;0.70;;;12.50;99.90;;;;;;5071744;28;20040;-47
2022/09/11 01:57:14;;;;;;;0.80;0.50;;;12.50;99.90;;;;;;5048437;28;20044;-46
2022/09/11 01:59:55;;;;;;;2.42;0.63;;;12.50;99.90;;;;;;5036505;28;20410;-46
2022/09/11 02:02:32;;;;;;;1.33;0.60;;;12.60;99.90;;;;;;5028502;28;20049;-48
2022/09/11 02:05:04;;;;;;;3.97;1.08;;;12.60;99.90;;;;;;5060880;28;20064;-46
2022/09/11 02:07:35;;;;;;;1.58;1.15;;;12.70;99.90;;;;;;5036360;28;20099;-47
2022/09/11 02:10:07;;;;;;;3.85;1.17;;;12.70;99.90;;;;;;5072427;28;20532;-46
2022/09/11 02:12:42;;;;;;;3.03;1.77;;;12.70;99.90;;;;;;5076002;28;20127;-47
2022/09/11 02:15:12;;;;;;;1.90;1.45;;;12.80;99.90;;;;;;5076252;28;20081;-47
2022/09/11 02:17:52;;;;;;;2.10;0.98;;;12.80;99.90;;;;;;5048657;28;20086;-48
2022/09/11 02:20:24;;;;;;;0.68;0.68;;;12.80;99.90;;;;;;5076380;28;20044;-47
2022/09/11 02:22:52;;;;;;;1.83;0.55;;;12.70;99.90;;;;;;5076119;28;20143;-47
2022/09/11 02:25:18;;;;;;;1.25;0.60;;;12.50;99.90;;;;;;5077528;28;20036;-46
2022/09/11 02:27:46;;;;;;;0.60;0.50;;;12.50;99.90;;;;;;5056267;28;20158;-47
2022/09/11 02:30:13;;;;;;;;;;;12.50;99.90;;;;;;5073949;28;20040;-46
2022/09/11 02:32:43;;;;;;;0.93;0.65;;;12.50;99.90;;;;;;5050148;28;19929;-46
2022/09/11 02:35:10;;;;;;;3.38;0.70;;;12.50;99.90;;;;;;5084697;28;20046;-47
2022/09/11 02:38:04;;;;;;;1.98;0.80;;;12.50;99.90;;;;;;5035515;28;20045;-46
2022/09/11 02:41:01;;;;;;;1.38;0.50;;;12.50;99.90;;;;;;5057148;28;20112;-46
2022/09/11 02:43:57;;;;;;;1.45;0.70;;;12.50;99.90;;;;;;5055721;28;20114;-48
2022/09/11 02:46:39;;;;;;;0.93;0.50;;;12.50;99.90;;;;;;5055077;28;20143;-46
2022/09/11 02:49:40;;;;;;;0.68;0.50;;;12.60;99.90;;;;;;5050838;28;20075;-47
2022/09/11 02:52:07;;;;;;;;;;;12.60;99.90;;;;;;5048387;28;20078;-47
2022/09/11 02:55:01;;;;;;;1.02;0.80;;;12.50;99.90;;;;;;5073133;28;19955;-46
2022/09/11 02:57:31;;;;;;;0.63;0.47;;;12.50;99.90;;;;;;5065130;28;20064;-47
2022/09/11 03:00:02;;;;;;;1.02;0.60;;;12.50;99.90;;;;;;5065349;28;20037;-47
2022/09/11 03:02:36;;;;;;;1.00;0.80;;;12.50;99.90;;;;;;5072255;28;20053;-46
2022/09/11 03:05:04;;;;;;;1.70;0.50;;;12.50;99.90;;;;;;5074279;28;20416;-47
2022/09/11 03:07:32;;;;;;;4.43;0.70;;;12.50;99.90;;;;;;5062815;28;20131;-46
2022/09/11 03:09:59;;;;;;;2.92;0.60;;;12.60;99.90;;;;;;5069604;28;20396;-46
2022/09/11 03:12:26;;;;;;;0.70;0.60;;;12.60;99.90;;;;;;5073885;28;20043;-47
2022/09/11 03:14:52;;;;;;;2.13;0.70;;;12.70;99.90;;;;;;5074504;28;20113;-47
2022/09/11 03:17:20;;;;;;;2.40;0.60;;;12.70;99.90;;;;;;5058910;28;20048;-46
2022/09/11 03:19:47;;;;;;;1.75;0.75;;;12.70;99.90;;;;;;5073193;28;20056;-46
2022/09/11 03:22:14;;;;;;;3.40;0.63;;;12.70;99.90;;;;;;5055173;28;20552;-46
2022/09/11 03:24:41;;;;;;;3.63;0.70;;;12.70;99.90;;;;;;5073119;28;20082;-47
2022/09/11 03:27:09;;;;;;;0.70;0.55;;;12.70;99.90;;;;;;5049629;28;20045;-46
2022/09/11 03:29:37;;;;;;;0.75;0.55;;;12.70;99.90;;;;;;5068460;28;20059;-46
2022/09/11 03:32:04;;;;;;;4.15;0.73;;;12.70;99.90;;;;;;5035080;28;20551;-46
2022/09/11 03:34:32;;;;;;;0.98;0.80;;;12.70;99.90;;;;;;5069602;28;20071;-46
2022/09/11 03:36:59;;;;;;;1.63;0.68;;;12.70;99.90;;;;;;5073113;28;20043;-46
2022/09/11 03:39:27;;;;;;;3.00;0.60;;;12.70;99.90;;;;;;5068345;28;20124;-46
2022/09/11 03:41:57;;;;;;;5.38;0.70;;;12.70;99.90;;;;;;5035461;28;20051;-46
2022/09/11 03:44:24;;;;;;;;;;;12.70;99.90;;;;;;5064318;28;20044;-46
2022/09/11 03:46:51;;;;;;;1.60;0.80;;;12.70;99.90;;;;;;5040695;28;19927;-47
2022/09/11 03:49:19;;;;;;;;;;;12.70;99.90;;;;;;5062885;28;20558;-46
2022/09/11 03:51:46;;;;;;;3.00;0.70;;;12.70;99.90;;;;;;5053399;28;19927;-46
2022/09/11 03:54:14;;;;;;;1.05;0.80;;;12.70;99.90;;;;;;5067125;28;20076;-46
2022/09/11 03:56:41;;;;;;;1.52;0.85;;;12.70;99.90;;;;;;5033919;28;20047;-46
2022/09/11 03:59:08;;;;;;;0.80;0.60;;;12.80;99.90;;;;;;5034702;28;20567;-46
2022/09/11 04:01:37;;;;;;;0.60;0.52;;;12.80;99.90;;;;;;5046920;28;20040;-46
2022/09/11 04:04:05;;;;;;;2.95;0.82;;;12.80;99.90;;;;;;5054415;28;20047;-46
2022/09/11 04:06:36;;;;;;;3.03;0.90;;;12.80;99.90;;;;;;5071345;28;20070;-46
2022/09/11 04:09:04;;;;;;;0.65;0.65;;;12.80;99.90;;;;;;5061891;28;20037;-46
2022/09/11 04:11:31;;;;;;;1.20;0.85;;;12.70;99.90;;;;;;5071011;28;20036;-46
2022/09/11 04:14:05;;;;;;;1.35;0.80;;;12.70;99.90;;;;;;5072712;28;20444;-47
2022/09/11 04:16:32;;;;;;;4.03;1.00;;;12.70;99.90;;;;;;5059770;28;20063;-46
2022/09/11 04:19:00;;;;;;;2.75;1.30;;;12.80;99.90;;;;;;5066416;28;20143;-46
2022/09/11 04:21:28;;;;;;;7.47;1.25;;;12.60;99.90;;;;;;5074044;28;20036;-47
2022/09/11 04:23:58;;;;;;;2.40;1.38;;;12.60;99.90;;;;;;5073951;28;20063;-46
2022/09/11 04:26:30;;;;;;;3.70;0.80;;;12.60;99.90;;;;;;5055383;28;20045;-46
2022/09/11 04:29:27;;;;;;;2.40;0.85;;;12.50;99.90;;;;;;5053097;28;20132;-46
2022/09/11 04:31:56;;;;;;;1.25;0.68;;;12.60;99.90;;;;;;5049323;28;20037;-47
2022/09/11 04:34:26;;;;;;;2.08;0.65;;;12.50;99.90;;;;;;5068807;28;20047;-47
2022/09/11 04:36:54;;;;;;;3.35;0.77;;;12.50;99.90;;;;;;5053346;28;20083;-46
2022/09/11 04:39:22;;;;;;;2.05;0.70;;;12.50;99.90;;;;;;5048027;28;20036;-46
2022/09/11 04:41:48;;;;;;;2.47;0.68;;;12.50;99.90;;;;;;5071479;28;20041;-49
2022/09/11 04:44:15;;;;;;;3.30;0.80;;;12.50;99.90;;;;;;5062797;28;20040;-46
2022/09/11 04:46:44;;;;;;;2.42;1.00;;;12.50;99.90;;;;;;5087265;28;20040;-47
2022/09/11 04:49:10;;;;;;;1.15;0.85;;;12.60;99.90;;;;;;5054152;28;20044;-47
2022/09/11 04:51:38;;;;;;;;;;;12.60;99.90;;;;;;5054020;28;20110;-46
2022/09/11 04:54:07;;;;;;;0.50;0.32;;;12.80;99.90;;;;;;5069693;28;20352;-46
2022/09/11 04:56:36;;;;;;;0.73;0.60;;;12.60;99.90;;;;;;5052407;28;20037;-46
2022/09/11 04:59:14;;;;;;;2.33;0.82;;;12.60;99.90;;;;;;5053736;28;20044;-47
2022/09/11 05:01:45;;;;;;;0.85;0.60;;;12.60;99.90;;;;;;5058951;28;20560;-47
2022/09/11 05:04:16;;;;;;;1.42;0.80;;;12.50;99.90;;;;;;5068310;28;20522;-46
2022/09/11 05:06:47;;;;;;;3.35;0.80;;;12.50;99.90;;;;;;5073326;28;20113;-46
2022/09/11 05:09:16;;;;;;;2.28;1.67;;;12.50;99.90;;;;;;5057952;28;20044;-46
2022/09/11 05:11:45;;;;;;;2.67;0.90;;;12.60;99.90;;;;;;5063377;28;20053;-47
2022/09/11 05:14:14;;;;;;;3.05;0.63;;;12.60;99.90;;;;;;5064385;28;20040;-46
2022/09/11 05:16:43;;;;;;;2.92;0.60;;;12.50;99.90;;;;;;5088208;28;20039;-46
2022/09/11 05:19:11;;;;;;;1.00;0.90;;;12.50;99.90;;;;;;5048800;28;20543;-46
2022/09/11 05:21:39;;;;;;;1.48;0.93;;;12.50;99.90;;;;;;5053632;28;20041;-47
2022/09/11 05:24:05;;;;;;;1.55;0.90;;;12.50;99.90;;;;;;5061753;28;20052;-46
2022/09/11 05:26:36;;;;;;;3.17;1.00;;;12.50;99.90;;;;;;5052012;28;20054;-46
2022/09/11 05:29:07;;;;;;;1.05;0.73;;;12.50;99.90;;;;;;5042551;28;20041;-46
2022/09/11 05:31:40;;;;;;;2.25;1.00;;;12.50;99.90;;;;;;5056806;28;20049;-47
2022/09/11 05:34:07;;;;;;;2.47;0.80;;;12.50;99.90;;;;;;5065774;28;20086;-46
2022/09/11 05:36:35;;;;;;;1.77;1.13;;;12.50;99.90;;;;;;5078967;28;20518;-47
2022/09/11 05:39:03;;;;;;;3.83;1.30;;;12.50;99.90;;;;;;5056991;28;20032;-46
2022/09/11 05:41:32;;;;;;;3.80;1.10;;;12.50;99.90;;;;;;5064571;28;20036;-46
2022/09/11 05:43:59;;;;;;;2.05;1.08;;;12.50;99.90;;;;;;5076907;28;20047;-47
2022/09/11 05:46:25;;;;;;;2.72;1.27;;;12.60;99.90;;;;;;5093383;28;20044;-46
2022/09/11 05:48:57;;;;;;;1.30;1.20;;;12.70;99.90;;;;;;5073692;28;20750;-48
2022/09/11 05:51:26;;;;;;;1.77;1.42;;;12.70;99.90;;;;;;5053735;28;20040;-48
2022/09/11 05:53:54;;;;;;;1.90;1.60;;;12.70;99.90;;;;;;5050951;28;20098;-46
2022/09/11 05:56:23;;;;;;;1.52;1.13;;;12.60;99.90;;;;;;5056633;28;20042;-46
2022/09/11 05:58:54;;;;;;;4.68;1.23;;;12.60;99.90;;;;;;5049071;28;20033;-46
2022/09/11 06:01:28;;;;;;;1.70;1.30;;;12.60;99.90;;;;;;5064711;28;20040;-47
2022/09/11 06:04:11;;;;;;;2.53;1.27;;;12.70;99.90;;;;;;5054973;28;20408;-46
2022/09/11 06:06:40;;;;;;;3.88;1.17;;;12.80;99.90;;;;;;5090946;22;20052;-48
2022/09/11 06:09:07;;;;;;;2.20;1.10;;;12.80;99.90;;;;;;5091562;28;20097;-49
2022/09/11 06:11:34;;;;;;;1.73;1.30;;;12.90;99.90;;;;;;5076606;28;20412;-47
2022/09/11 06:14:01;;;;;;;4.45;1.40;;;13.00;99.90;;;;;;5076194;28;20498;-49
2022/09/11 06:16:30;;;;;;;2.53;1.08;;;13.00;99.90;;;;;;5064700;28;20420;-47
2022/09/11 06:19:04;;;;;;;2.13;1.50;;;13.00;99.90;;;;;;5056508;28;20041;-47
2022/09/11 06:21:31;;;;;;;;;;;12.90;99.90;;;;;;5072566;28;20040;-49
2022/09/11 06:24:04;;;;;;;1.67;1.02;;;12.90;99.90;;;;;;5071943;28;19927;-51
2022/09/11 06:26:31;;;;;;;2.20;1.60;;;12.90;99.90;;;;;;5056516;28;20566;-47
2022/09/11 06:28:58;;;;;;;1.77;1.40;;;12.90;99.90;;;;;;5073441;28;20083;-51
2022/09/11 06:31:26;;;;;;;2.42;1.45;;;12.90;99.90;;;;;;5073126;28;20040;-50
2022/09/11 06:33:53;;;;;;;2.28;1.25;;;12.90;99.90;;;;;;5055782;28;20115;-48
2022/09/11 06:36:30;;;;;;;3.63;1.42;;;12.80;99.90;;;;;;5055926;28;20106;-47
2022/09/11 06:39:01;;;;;;;5.80;1.55;;;12.80;99.90;;;;;;5056324;28;20086;-48
2022/09/11 06:41:27;;;;;;;1.55;1.45;;;12.80;99.90;;;;;;5071540;28;20052;-47
2022/09/11 06:44:06;;;;;;;;;;;12.90;99.90;;;;;;5056192;28;20051;-49
2022/09/11 06:46:34;;;;;;;3.65;1.80;;;13.00;99.90;;;;;;5073524;28;20011;-47
2022/09/11 06:49:01;;;;;;;5.70;2.00;;;13.00;99.90;;;;;;5052803;28;20040;-48
2022/09/11 06:51:28;;;;;;;2.85;1.45;;;13.10;99.90;;;;;;5055740;28;20041;-49
2022/09/11 06:54:01;;;;;;;4.18;1.15;;;13.10;99.90;;;;;;5055111;28;20041;-48
2022/09/11 06:56:31;;;;;;;2.17;1.20;;;13.20;99.90;;;;;;5055323;28;20095;-50
2022/09/11 06:58:59;;;;;;;2.20;1.23;;;13.20;99.90;;;;;;5055675;28;20044;-49
2022/09/11 07:01:27;;;;;;;1.58;1.20;;;13.30;99.90;;;;;;5055824;28;20078;-48
2022/09/11 07:04:01;;;;;;;3.40;1.33;;;13.30;99.90;;;;;;5054127;28;20044;-51
2022/09/11 07:06:31;;;;;;;5.38;1.20;;;13.30;99.90;;;;;;5055227;28;20451;-50
2022/09/11 07:09:01;;;;;;;2.85;1.38;;;13.30;99.90;;;;;;5053673;28;20068;-50
2022/09/11 07:11:43;;;;;;;1.20;1.10;;;13.30;99.90;;;;;;5055449;28;20141;-48
2022/09/11 07:14:10;;;;;;;2.33;1.30;;;13.40;99.90;;;;;;5054168;28;20523;-47
2022/09/11 07:16:39;;;;;;;1.20;1.10;;;13.40;99.90;;;;;;5071476;28;20412;-48
2022/09/11 07:19:10;;;;;;;3.60;1.17;;;13.40;99.90;;;;;;5049330;28;20132;-49
2022/09/11 07:21:38;;;;;;;2.92;1.40;;;13.40;99.90;;;;;;5055690;28;20045;-48
2022/09/11 07:24:05;;;;;;;2.65;1.58;;;13.40;99.90;;;;;;5053861;28;20455;-48
2022/09/11 07:26:36;;;;;;;1.80;1.45;;;13.40;99.90;;;;;;5049678;28;20055;-50
2022/09/11 07:29:10;;;;;;;1.98;1.50;;;13.40;99.90;;;;;;5054297;28;20048;-50
2022/09/11 07:31:47;;;;;;;2.40;1.33;;;13.40;99.90;;;;;;5054623;28;20045;-46
2022/09/11 07:34:15;;;;;;;2.75;1.40;;;13.40;99.90;;;;;;5050517;28;20041;-51
2022/09/11 07:36:43;;;;;;;;;;;13.50;99.90;;;;;;5055354;28;20043;-48
2022/09/11 07:39:11;;;;;;;4.03;1.30;;;13.40;99.90;;;;;;5054856;28;20347;-49
2022/09/11 07:41:48;;;;;;;3.30;1.55;;;13.40;99.90;;;;;;5067491;28;20045;-46
2022/09/11 07:44:22;;;;;;;3.22;1.60;;;13.40;99.90;;;;;;5054559;28;20049;-48
2022/09/11 07:46:50;;;;;;;2.85;1.48;;;13.40;99.90;;;;;;5054011;28;20135;-49
2022/09/11 07:49:16;;;;;;;;;;;13.50;99.90;;;;;;5054472;28;20079;-48
2022/09/11 07:51:43;;;;;;;1.85;1.27;;;13.60;99.90;;;;;;5053119;28;19920;-50
2022/09/11 07:54:14;;;;;;;2.13;1.33;;;13.60;99.90;;;;;;5054449;28;20083;-48
2022/09/11 07:56:41;;;;;;;;;;;13.60;99.90;;;;;;5054760;28;20041;-50
2022/09/11 07:59:10;;;;;;;;;;;13.50;99.90;;;;;;5064144;28;20269;-50
2022/09/11 08:01:41;;;;;;;1.83;1.40;;;13.50;99.90;;;;;;5058174;28;19920;-48
2022/09/11 08:04:11;;;;;;;4.47;1.40;;;13.50;99.90;;;;;;5074298;28;20397;-50
2022/09/11 08:06:39;;;;;;;1.88;1.33;;;13.50;99.90;;;;;;5074166;28;20044;-51
2022/09/11 08:09:14;;;;;;;1.50;1.40;;;13.50;99.90;;;;;;5042829;28;20469;-49
2022/09/11 08:11:47;;;;;;;3.45;1.60;;;13.40;99.90;;;;;;5045810;28;20048;-48
2022/09/11 08:14:16;;;;;;;2.53;1.45;;;13.50;99.90;;;;;;5054164;28;20045;-48
2022/09/11 08:16:47;;;;;;;5.88;1.25;;;13.50;99.90;;;;;;5053364;28;20291;-50
2022/09/11 08:19:20;;;;;;;3.45;1.70;;;13.60;99.90;;;;;;5071949;28;20041;-51
2022/09/11 08:21:52;;;;;;;2.28;1.70;;;13.60;99.90;;;;;;5037714;28;20044;-50
2022/09/11 08:24:33;;;;;;;1.77;1.40;;;13.60;99.90;;;;;;5053194;28;20044;-50
2022/09/11 08:27:04;;;;;;;3.15;1.30;;;13.60;99.90;;;;;;5043832;28;20037;-50
2022/09/11 08:29:31;;;;;;;1.85;1.55;;;13.50;99.90;;;;;;5042631;28;20073;-48
2022/09/11 08:31:59;;;;;;;3.47;1.48;;;13.60;99.90;;;;;;5053542;28;20036;-48
2022/09/11 08:34:29;;;;;;;2.83;1.67;;;13.60;99.90;;;;;;5040307;28;20094;-48
2022/09/11 08:36:56;;;;;;;2.03;1.83;;;13.60;99.90;;;;;;5059490;28;20036;-50
2022/09/11 08:39:25;;;;;;;3.85;1.70;;;13.60;99.90;;;;;;5047492;28;20056;-49
2022/09/11 08:42:02;;;;;;;3.00;1.60;;;13.60;99.90;;;;;;5052121;28;20036;-49
2022/09/11 08:44:36;;;;;;;3.92;1.50;;;13.60;99.90;;;;;;5053022;28;20132;-49
2022/09/11 08:47:21;;;;;;;1.80;1.50;;;13.70;99.90;;;;;;5053203;28;20455;-52
2022/09/11 08:50:17;;;;;;;2.70;1.70;;;13.60;99.90;;;;;;5052110;28;20036;-49
2022/09/11 08:52:45;;;;;;;3.78;1.67;;;13.70;99.90;;;;;;5053224;28;20102;-50
2022/09/11 08:55:23;;;;;;;2.03;1.70;;;13.80;99.90;;;;;;5051269;28;20098;-50
2022/09/11 08:58:20;;;;;;;2.28;1.98;;;13.90;99.90;;;;;;5052943;28;20566;-51
2022/09/11 09:01:06;;;;;;;3.85;2.13;;;14.10;99.90;;;;;;5022891;28;20107;-52
2022/09/11 09:03:52;;;;;;;9.57;5.35;;;14.20;99.90;;;;;;5050531;28;20071;-48
2022/09/11 09:06:32;;;;;;;7.90;3.45;;;14.30;99.90;;;;;;5053020;28;20052;-49
2022/09/11 09:09:45;;;;;;;10.50;4.53;;;14.20;99.90;;;;;;5050981;28;20044;-49
2022/09/11 09:12:21;;;;;;;8.80;5.18;;;14.30;99.90;;;;;;4985579;28;20084;-50
2022/09/11 09:14:51;;;;;;;9.93;6.07;;;14.40;99.90;;;;;;4988821;28;20053;-48
2022/09/11 09:17:23;;;;;;;6.00;4.43;;;14.40;99.90;;;;;;5014598;28;20045;-51
2022/09/11 09:20:12;;;;;;;4.30;3.00;;;14.40;99.90;;;;;;5053015;28;20040;-50
2022/09/11 09:22:55;;;;;;;9.93;6.50;;;14.50;99.90;;;;;;5036637;28;20044;-48
2022/09/11 09:25:25;;;;;;;2.28;1.70;;;14.60;99.90;;;;;;5050137;28;20052;-48
2022/09/11 09:28:02;;;;;;;2.80;1.50;;;14.40;99.90;;;;;;5048254;28;20041;-51
2022/09/11 09:31:04;;;;;;;2.40;1.15;;;14.40;99.90;;;;;;5049198;28;20580;-48
2022/09/11 09:33:41;;;;;;;2.70;1.13;;;14.30;99.90;;;;;;5031759;28;20473;-48
2022/09/11 09:36:25;;;;;;;3.15;1.38;;;14.40;99.90;;;;;;5051796;28;20056;-51
2022/09/11 09:38:53;;;;;;;1.73;1.05;;;14.50;99.90;;;;;;5058116;28;20036;-47
2022/09/11 09:41:23;;;;;;;2.47;1.30;;;14.40;99.90;;;;;;5053058;28;20045;-48
2022/09/11 09:44:16;;;;;;;4.45;1.13;;;14.40;99.90;;;;;;5051587;28;20045;-47
2022/09/11 09:46:49;;;;;;;2.22;1.20;;;14.40;99.90;;;;;;5068890;28;20493;-50
2022/09/11 09:49:22;;;;;;;3.20;1.20;;;14.40;99.90;;;;;;5070657;28;20048;-51
2022/09/11 09:51:50;;;;;;;2.42;1.15;;;14.20;99.90;;;;;;5069775;28;20454;-49
2022/09/11 09:54:22;;;;;;;2.63;1.08;;;14.20;99.90;;;;;;5069695;28;20111;-48
2022/09/11 09:57:01;;;;;;;0.98;0.80;;;14.30;99.90;;;;;;5068936;28;20132;-49
2022/09/11 09:59:39;;;;;;;1.20;1.10;;;14.10;99.90;;;;;;5070377;28;20079;-48
2022/09/11 10:02:06;;;;;;;1.90;1.20;;;14.10;99.90;;;;;;5067869;28;20443;-47
2022/09/11 10:04:33;;;;;;;2.88;1.05;;;14.10;99.90;;;;;;5069604;28;20050;-48
2022/09/11 10:07:21;;;;;;;1.52;0.90;;;14.20;99.90;;;;;;5068884;28;20097;-48
2022/09/11 10:09:53;;;;;;;0.88;0.88;;;14.30;99.90;;;;;;5071135;28;20072;-49
2022/09/11 10:12:26;;;;;;;1.17;1.08;;;14.30;99.90;;;;;;5069791;28;20128;-48
2022/09/11 10:14:59;;;;;;;1.13;1.00;;;14.20;99.90;;;;;;5070053;28;20071;-51
2022/09/11 10:17:29;;;;;;;1.90;1.23;;;14.30;99.90;;;;;;5069460;28;20045;-50
2022/09/11 10:20:18;;;;;;;5.28;1.50;;;14.40;99.90;;;;;;5070208;28;20116;-49
2022/09/11 10:22:45;;;;;;;0.90;0.80;;;14.30;99.90;;;;;;5054089;28;20083;-50
2022/09/11 10:25:14;;;;;;;;;;;14.10;99.90;;;;;;5072688;28;20048;-48
2022/09/11 10:28:02;;;;;;;4.57;1.30;;;14.00;99.90;;;;;;5074278;28;20352;-49
2022/09/11 10:30:32;;;;;;;3.55;1.20;;;14.00;99.90;;;;;;5073715;28;20072;-48
2022/09/11 10:33:02;;;;;;;1.08;0.93;;;14.00;99.90;;;;;;5072344;28;20070;-47
2022/09/11 10:35:30;;;;;;;1.30;1.10;;;14.10;99.90;;;;;;5072857;28;20036;-47
2022/09/11 10:38:13;;;;;;;2.03;1.30;;;14.30;99.90;;;;;;5071252;28;20048;-47
2022/09/11 10:40:44;;;;;;;1.25;1.00;;;14.40;99.90;;;;;;5060016;28;20091;-49
2022/09/11 10:43:23;;;;;;;1.85;1.00;;;14.50;99.90;;;;;;5064099;28;20048;-47
2022/09/11 10:46:19;;;;;;;2.00;1.20;;;14.70;99.90;;;;;;5064511;28;20083;-48
2022/09/11 10:49:14;;;;;;;2.22;1.20;;;14.80;99.90;;;;;;5061668;28;20041;-48
2022/09/11 10:51:42;;;;;;;3.35;1.73;;;14.90;99.90;;;;;;5064037;28;20119;-47
2022/09/11 10:54:25;;;;;;;1.55;1.08;;;15.10;99.90;;;;;;5070244;28;20124;-48
2022/09/11 10:57:26;;;;;;;6.03;1.30;;;15.50;99.90;;;;;;5073522;28;20493;-47
2022/09/11 11:00:04;;;;;;;1.15;0.98;;;15.70;99.90;;;;;;5072117;28;20448;-48
2022/09/11 11:02:45;;;;;;;1.48;1.05;;;15.80;99.90;;;;;;5072205;28;20120;-48
2022/09/11 11:05:18;;;;;;;2.65;1.40;;;15.90;99.90;;;;;;5069643;28;20037;-48
2022/09/11 11:07:57;;;;;;;1.95;1.15;;;16.10;99.90;;;;;;5072922;28;20049;-49
2022/09/11 11:11:13;;;;;;;1.63;0.90;;;16.20;99.90;;;;;;5072193;28;20523;-49
2022/09/11 11:14:07;;;;;;;1.30;0.80;;;16.30;99.90;;;;;;5034857;28;20508;-47
2022/09/11 11:16:46;;;;;;;0.90;0.82;;;15.80;99.90;;;;;;5072785;28;20087;-48
2022/09/11 11:20:04;;;;;;;3.70;1.88;;;15.90;99.90;;;;;;5063440;28;20051;-49
2022/09/11 11:22:52;;;;;;;3.15;1.08;;;16.00;99.90;;;;;;4982240;28;20046;-48
2022/09/11 11:25:33;;;;;;;1.15;0.88;;;16.00;99.90;;;;;;4978408;28;20089;-47
2022/09/11 11:28:19;;;;;;;1.48;0.95;;;15.90;99.90;;;;;;5043674;28;20049;-47
2022/09/11 11:31:26;;;;;;;1.75;1.30;;;15.80;99.90;;;;;;5064696;28;20098;-49
2022/09/11 11:34:20;;;;;;;1.48;1.00;;;15.80;99.90;;;;;;5062305;28;20052;-48
2022/09/11 11:36:59;;;;;;;2.88;0.90;;;15.70;99.90;;;;;;5059651;28;20079;-47
2022/09/11 11:39:45;;;;;;;2.92;1.08;;;15.70;99.90;;;;;;5060428;28;20089;-47
2022/09/11 11:42:19;;;;;;;3.83;1.00;;;15.80;99.90;;;;;;5063298;28;20036;-48
2022/09/11 11:44:53;;;;;;;1.13;0.90;;;15.90;99.90;;;;;;5052758;28;20071;-48
2022/09/11 11:47:25;;;;;;;1.83;1.17;;;15.90;99.90;;;;;;5072182;28;20045;-48
2022/09/11 11:50:32;;;;;;;2.20;1.20;;;16.00;99.90;;;;;;5066584;28;20055;-50
2022/09/11 11:53:11;;;;;;;1.75;1.00;;;16.00;99.90;;;;;;5028293;28;20473;-48
2022/09/11 11:56:01;;;;;;;2.25;1.25;;;16.10;99.90;;;;;;5070916;28;20036;-48
2022/09/11 11:58:54;;;;;;;2.28;1.02;;;16.00;99.90;;;;;;5061196;28;20515;-49
2022/09/11 12:01:33;;;;;;;0.90;0.80;;;15.80;99.90;;;;;;5060970;28;20440;-47
2022/09/11 12:04:18;;;;;;;2.65;0.82;;;15.90;99.90;;;;;;5034665;28;20041;-48
2022/09/11 12:06:45;;;;;;;2.03;0.90;;;16.00;99.90;;;;;;5069362;28;20536;-48
2022/09/11 12:09:15;;;;;;;2.60;0.70;;;16.10;99.90;;;;;;5072157;28;20044;-49
2022/09/11 12:11:45;;;;;;;4.00;1.00;;;16.20;99.90;;;;;;5071475;28;20446;-47
2022/09/11 12:14:47;;;;;;;1.13;0.77;;;16.20;99.90;;;;;;5069163;28;20564;-47
2022/09/11 12:17:29;;;;;;;2.72;0.90;;;16.30;99.90;;;;;;5068900;28;20048;-48
2022/09/11 12:20:10;;;;;;;0.90;0.82;;;16.40;99.90;;;;;;5060885;28;20060;-48
2022/09/11 12:22:46;;;;;;;4.63;1.20;;;16.40;99.90;;;;;;5058842;28;20044;-49
2022/09/11 12:25:19;;;;;;;1.38;0.90;;;16.30;99.90;;;;;;5056098;28;20037;-48
2022/09/11 12:27:54;;;;;;;2.50;0.90;;;16.20;99.90;;;;;;5038196;28;20052;-48
2022/09/11 12:30:27;;;;;;;3.22;1.10;;;16.10;99.90;;;;;;5066337;28;20115;-49
2022/09/11 12:32:59;;;;;;;1.48;0.90;;;15.90;99.90;;;;;;5060335;28;20060;-47
2022/09/11 12:35:46;;;;;;;3.13;1.20;;;15.80;99.90;;;;;;5056968;28;20033;-47
2022/09/11 12:38:38;;;;;;;5.95;2.20;;;15.50;99.90;;;;;;5058665;28;20045;-47
2022/09/11 12:41:21;;;;;;;3.28;1.20;;;15.30;99.90;;;;;;5056454;28;20056;-48
2022/09/11 12:43:49;;;;;;;3.10;1.60;;;15.20;99.90;;;;;;5053028;28;20410;-47
2022/09/11 12:46:25;;;;;;;5.28;1.40;;;15.20;99.90;;;;;;5049404;28;20106;-47
2022/09/11 12:48:51;;;;;;;3.42;1.70;;;15.40;99.90;;;;;;5065439;28;20385;-48
2022/09/11 12:51:41;;;;;;;3.95;1.65;;;15.50;99.90;;;;;;5061658;28;20119;-46
2022/09/11 12:54:15;;;;;;;3.45;1.42;;;15.60;99.90;;;;;;5062946;28;20037;-48
2022/09/11 12:56:48;;;;;;;5.10;1.70;;;15.70;99.90;;;;;;5059045;28;20035;-47
2022/09/11 12:59:24;;;;;;;3.65;1.38;;;15.70;99.90;;;;;;5060569;28;20038;-48
2022/09/11 13:01:52;;;;;;;5.25;1.67;;;15.80;99.90;;;;;;5059124;28;20055;-48
2022/09/11 13:04:30;;;;;;;1.27;1.17;;;15.80;99.90;;;;;;5059858;28;20489;-48
2022/09/11 13:07:02;;;;;;;2.85;1.60;;;15.90;99.90;;;;;;5064310;28;20102;-48
2022/09/11 13:09:40;;;;;;;1.80;1.48;;;15.90;99.90;;;;;;5071359;28;20044;-48
2022/09/11 13:12:22;;;;;;;;;;;16.00;99.90;;;;;;5061283;28;20048;-48
2022/09/11 13:14:55;;;;;;;3.80;1.83;;;16.30;99.90;;;;;;5043300;28;19920;-47
2022/09/11 13:17:31;;;;;;;3.20;1.35;;;16.50;99.90;;;;;;5070300;28;20095;-48
2022/09/11 13:20:06;;;;;;;2.67;1.45;;;16.70;99.90;;;;;;5071264;28;20047;-48
2022/09/11 13:22:34;;;;;;;8.55;1.60;;;17.00;99.90;;;;;;5051948;28;20500;-47
2022/09/11 13:25:14;;;;;;;2.20;1.60;;;16.90;99.90;;;;;;5052796;28;20044;-47
2022/09/11 13:27:45;;;;;;;2.92;1.63;;;16.60;99.90;;;;;;5059868;28;20123;-48